22 minutes ago
Runway Headwind Crosswind Length
5 kt 10,085 ft
5 kt 8,038 ft
METAR EBBE 151755Z AUTO 04006KT 9999 FEW240/// 06/M01 Q1028 BLU

METAR definition | Embed

METAR Beauvechain Air Base

Beauvechain Air Base is a midsized airport in Beauvechain, Belgium. The airport has 2 runways: 04L/22R (10,085 ft) and 04R/22L

This report was made for Beauvechain Air Base on April 15, 2021 7:55 pm, local time.

Airport observations

The wind is from direction northeast (040°) with a speed of 6 kt.

Visibility is 6¼ mi or more.

There are few clouds at an altitude of 24,000 ft. No ceiling has been observed.

The temperature is 43 °F, with a wind chill of 36 °F. The dew point is 30 °F, the relative humidity is 61%. The air pressure at sea level is 30.36 inHg (QNH).

Daylight period

Today the sun rises at 6:45 am and sets at 8:36 pm. This applies to Beauvechain Air Base, the universal daylight period may be different. The difference between the local time and UTC is +2 hour. Daylight saving time is currently in progress.

Historical data

Donate

Will you help us to keep Metar-Taf.com running?
Your contribution helps further development of the site and to pay for the expenses.

No more ads

Are you donating $ 5 or more? Then we'll never show you ads again, as a token of our eternal gratitude!
Log in before you donate

Do you want the flying weather of Beauvechain Air Base on your website? Read more   Free!